Belocean — 9V8782 — position and weather

sailwx.info

Track history (hours):
 
Tides and Currents Weather Stations Pressure Air Temp Water Temp Dewpoint Dewpoint Depression Visibility Wind Speed Wind Dir Waves Ship Positions

Belocean

Last reported at 2017-Jan-19 01:31 UTC. Time now 2017-Jan-19 02:25 UTC.
Position N 51°50' W 008°20'.

Length 190 m; draft 10.7 m.

Type: Ship. MMSI: 563582000.

Date/timePositionNaut miles runAvg speedWind from/ knotsBaromVisibWave heightAir tempDewpointWater temp
2017-Jan-19 01:31N 51°50' W 008°20'0 0.0
2017-Jan-19 00:31N 51°50' W 008°20'0 0.0
2017-Jan-18 23:31N 51°50' W 008°20'0 0.0
2017-Jan-18 22:31N 51°50' W 008°20'0 0.0
2017-Jan-18 21:31N 51°50' W 008°20'0 0.0
2017-Jan-18 20:31N 51°50' W 008°20'0 0.0
2017-Jan-18 19:31N 51°50' W 008°20'0 0.0
2017-Jan-18 18:31N 51°50' W 008°20'0 0.0
2017-Jan-18 17:31N 51°50' W 008°20'0 0.0
2017-Jan-18 16:31N 51°50' W 008°20'0 0.0
2017-Jan-18 15:31N 51°50' W 008°20'0 0.0
2017-Jan-18 14:31N 51°50' W 008°20'0 0.0
2017-Jan-18 13:25N 51°50' W 008°20'0 0.0
2017-Jan-18 12:31N 51°50' W 008°20'0 0.0
2017-Jan-18 11:31N 51°50' W 008°20'0 0.0
2017-Jan-18 10:31N 51°50' W 008°20'0 0.0
2017-Jan-18 09:31N 51°50' W 008°20'0 0.3
2017-Jan-18 08:33N 51°50' W 008°19'5 5.0
2017-Jan-18 07:33N 51°46' W 008°15'7 7.3
2017-Jan-18 06:33N 51°39' W 008°13'4 3.8
2017-Jan-18 05:33N 51°36' W 008°16'4 3.7
2017-Jan-18 04:33N 51°32' W 008°15'8 7.8
2017-Jan-18 03:33N 51°25' W 008°20'2911.9
2017-Jan-18 01:09N 50°57' W 008°30'  
2017-Jan-13 17:18N 30°06' W 014°52'2413.8
2017-Jan-13 15:33N 29°43' W 014°58'1714.0
2017-Jan-13 14:22N 29°26' W 015°02'2513.9
2017-Jan-13 12:33N 29°02' W 015°09'1313.5
2017-Jan-13 11:33N 28°49' W 015°12'1313.3
2017-Jan-13 10:33N 28°36' W 015°16'1313.3
2017-Jan-13 09:33N 28°23' W 015°19'1312.9
2017-Jan-13 08:33N 28°10' W 015°21'4 0.4
2017-Jan-12 22:11N 28°07' W 015°25'1 1.7
2017-Jan-12 21:30N 28°06' W 015°24'0 0.1
2017-Jan-12 20:33N 28°06' W 015°24'0 0.0
2017-Jan-12 19:33N 28°06' W 015°24'0 0.0
2017-Jan-12 18:33N 28°06' W 015°24'0 0.0
2017-Jan-12 17:33N 28°06' W 015°24'0 0.1
2017-Jan-12 16:33N 28°06' W 015°24'0 0.0
2017-Jan-12 15:33N 28°06' W 015°24'0 0.0
2017-Jan-12 14:24N 28°06' W 015°24'0 0.0
2017-Jan-12 11:27N 28°06' W 015°24'0 0.0
2017-Jan-12 10:30N 28°06' W 015°24'0 0.0
2017-Jan-12 09:30N 28°06' W 015°24'2 1.7
2017-Jan-12 08:33N 28°07' W 015°22'0 0.3
2017-Jan-12 07:33N 28°07' W 015°23'1 1.1
2017-Jan-12 06:33N 28°07' W 015°21'7 7.1
2017-Jan-12 05:33N 28°01' W 015°17'9 8.9
2017-Jan-12 04:34N 27°52' W 015°17'1210.9
2017-Jan-12 03:30N 27°41' W 015°21'34311.9
2017-Jan-10 22:33N 22°29' W 018°00'1412.7
2017-Jan-10 21:29N 22°17' W 018°06'1212.8
2017-Jan-10 20:33N 22°06' W 018°12'4012.8
2017-Jan-10 17:27N 21°30' W 018°30'  
Track history (hours):
 
Tides and Currents Weather Stations Pressure Air Temp Water Temp Dewpoint Dewpoint Depression Visibility Wind Speed Wind Dir Waves Ship Positions

Belocean

Last reported at 2017-Jan-19 01:31 UTC. Time now 2017-Jan-19 02:25 UTC.
Position N 51°50' W 008°20'.

Length 190 m; draft 10.7 m.

Type: Ship. MMSI: 563582000.

Date/timePositionNaut miles runAvg speedWind from/ knotsBaromVisibWave heightAir tempDewpointWater temp
2017-Jan-19 01:31N 51°50' W 008°20'0 0.0
2017-Jan-19 00:31N 51°50' W 008°20'0 0.0
2017-Jan-18 23:31N 51°50' W 008°20'0 0.0
2017-Jan-18 22:31N 51°50' W 008°20'0 0.0
2017-Jan-18 21:31N 51°50' W 008°20'0 0.0
2017-Jan-18 20:31N 51°50' W 008°20'0 0.0
2017-Jan-18 19:31N 51°50' W 008°20'0 0.0
2017-Jan-18 18:31N 51°50' W 008°20'0 0.0
2017-Jan-18 17:31N 51°50' W 008°20'0 0.0
2017-Jan-18 16:31N 51°50' W 008°20'0 0.0
2017-Jan-18 15:31N 51°50' W 008°20'0 0.0
2017-Jan-18 14:31N 51°50' W 008°20'0 0.0
2017-Jan-18 13:25N 51°50' W 008°20'0 0.0
2017-Jan-18 12:31N 51°50' W 008°20'0 0.0
2017-Jan-18 11:31N 51°50' W 008°20'0 0.0
2017-Jan-18 10:31N 51°50' W 008°20'0 0.0
2017-Jan-18 09:31N 51°50' W 008°20'0 0.3
2017-Jan-18 08:33N 51°50' W 008°19'5 5.0
2017-Jan-18 07:33N 51°46' W 008°15'7 7.3
2017-Jan-18 06:33N 51°39' W 008°13'4 3.8
2017-Jan-18 05:33N 51°36' W 008°16'4 3.7
2017-Jan-18 04:33N 51°32' W 008°15'8 7.8
2017-Jan-18 03:33N 51°25' W 008°20'2911.9
2017-Jan-18 01:09N 50°57' W 008°30'  
2017-Jan-13 17:18N 30°06' W 014°52'2413.8
2017-Jan-13 15:33N 29°43' W 014°58'1714.0
2017-Jan-13 14:22N 29°26' W 015°02'2513.9
2017-Jan-13 12:33N 29°02' W 015°09'1313.5
2017-Jan-13 11:33N 28°49' W 015°12'1313.3
2017-Jan-13 10:33N 28°36' W 015°16'1313.3
2017-Jan-13 09:33N 28°23' W 015°19'1312.9
2017-Jan-13 08:33N 28°10' W 015°21'4 0.4
2017-Jan-12 22:11N 28°07' W 015°25'1 1.7
2017-Jan-12 21:30N 28°06' W 015°24'0 0.1
2017-Jan-12 20:33N 28°06' W 015°24'0 0.0
2017-Jan-12 19:33N 28°06' W 015°24'0 0.0
2017-Jan-12 18:33N 28°06' W 015°24'0 0.0
2017-Jan-12 17:33N 28°06' W 015°24'0 0.1
2017-Jan-12 16:33N 28°06' W 015°24'0 0.0
2017-Jan-12 15:33N 28°06' W 015°24'0 0.0
2017-Jan-12 14:24N 28°06' W 015°24'0 0.0
2017-Jan-12 11:27N 28°06' W 015°24'0 0.0
2017-Jan-12 10:30N 28°06' W 015°24'0 0.0
2017-Jan-12 09:30N 28°06' W 015°24'2 1.7
2017-Jan-12 08:33N 28°07' W 015°22'0 0.3
2017-Jan-12 07:33N 28°07' W 015°23'1 1.1
2017-Jan-12 06:33N 28°07' W 015°21'7 7.1
2017-Jan-12 05:33N 28°01' W 015°17'9 8.9
2017-Jan-12 04:34N 27°52' W 015°17'1210.9
2017-Jan-12 03:30N 27°41' W 015°21'34311.9
2017-Jan-10 22:33N 22°29' W 018°00'1412.7
2017-Jan-10 21:29N 22°17' W 018°06'1212.8
2017-Jan-10 20:33N 22°06' W 018°12'4012.8
2017-Jan-10 17:27N 21°30' W 018°30'  

Dump ship's entire track history